Spencer, WI (54479)

3:09 AM CDT on August 30, 2015 (GMT -0500)
Marshfield Municipal | | Change Station
CLOSE
Current Station
Airport
Location: Marshfield,
Elevation: 1276 ft
Nearby Weather Stations

Elev 1276 ft 44.64 °N, 90.19 °W | Updated 3 minutes ago

Fog
Fog
57 °F
Feels Like 57 °F
N
5
Wind Variable Wind from SW

Today
High -- | Low -- °F
--% Chance of Precip.
Yesterday
High -- | Low -- °F
Precip. -- in
6:20 AM 7:41 PM
Full, 100% visible
Pressure 30.05 in
Visibility 0.2 miles
Clouds
Dew Point 54 °F
Humidity 89%
Rainfall 0.00 in
Snow Depth Not available.
UV Not available.
Pollen 8.90 out of 12
Air Quality Not available.
Flu Activity Not available.
SPECI KMFI 300806Z AUTO 22004KT 1/4SM FG VV002 14/12 A3005 RMK AO2 T01390122
Pressure 30.05 in
Visibility 0.2 miles
Clouds
Dew Point 54 °F
Humidity 89%
Rainfall 0.00 in
Snow Depth Not available.
UV Not available.
Pollen 8.90 out of 12
Air Quality Not available.
Flu Activity Not available.
SPECI KMFI 300806Z AUTO 22004KT 1/4SM FG VV002 14/12 A3005 RMK AO2 T01390122

10-Day Weather Forecast

×

Almanac

Astronomy

Aug. 30, 2015 Rise Set
Actual Time
Civil Twilight
Nautical Twilight
Astronomical Twilight
Moon
Length of Visible Light
Length of Day
Tomorrow will be .
, % of the Moon is Illuminated

Today's Extremes

State Highs State Lows

Community

WunderPhotos

Upload Photos

1,850,906 photos uploaded!

WunderBlogs® & News

Nearby

Air Quality

  Air Quality AQ Index Pollutant
Not available.

Snow Depth

Station Depth Elevation

Earthquake Activity

City Distance Mag. Time & Date
Minimum magnitude displayed is 2.5.

Coastal Water Temperatures

Place Temperature

Stations

Nearby Weather Stations

Station Location Temp. Windchill Dew Point Humidity Wind Precip. Elev Updated Type